• Join FlightAware (Why Join?)
  • Login
  • US Flag 
11:32AM EDT


 

Airport Tracker/Info


-or-


 

Live Flight TrackerFlight Track Log ✈ DAL1318 ✈ 17-Jul-2013 ✈ KBHM - KATL

Flight Track Log - Related Links

Times and Time Zones

All times are in EDT time to prevent confusion due to time zone crossing. See the DAL1318 flight status page for this flight to view local times or setup timezone preferences in your user account.

Time Position Orientation Groundspeed Altitude Reporting Facility
EDT Latitude Longitude Course Direction KTS MPH feet Rate Location/Type
09:18AM 33.5683 -86.7464 140° Southeast 165 190 1,600  Level Atlanta Center
09:19AM 33.5967 -86.6922 58° Northeast 221 254 3,300 2,400 Climbing Atlanta Center
09:20AM 33.5647 -86.6242 119° Southeast 273 314 6,600 3,000 Climbing Atlanta Center
09:21AM 33.5771 -86.4168 140° Southeast  Level Estimated
09:21AM 33.4947 -86.5797 152° Southeast 273 314 9,900  Level Atlanta Center
09:22AM 33.5813 -86.3050 140° Southeast  Level Estimated
09:22AM 33.4122 -86.5275 152° Southeast 300 345 10,700  Level Atlanta Center
09:23AM 33.5854 -86.1931 140° Southeast  Level Estimated
09:23AM 33.3003 -86.4919 165° South 358 412 11,000  Level Atlanta Center
09:24AM 33.1986 -86.4592 165° South 375 432 12,000 1,860 Climbing Atlanta Center
09:25AM 33.1400 -86.3608 125° Southeast 368 423 14,800 2,640 Climbing Atlanta Center
09:26AM 33.1300 -86.2267 95° East 339 390 17,300 2,220 Climbing Atlanta Center
09:27AM 33.1217 -86.0925 94° East 367 422 19,300 1,800 Climbing Atlanta Center
09:28AM 33.1114 -85.9583 95° East 393 452 21,000 840 Climbing Atlanta Center
09:29AM 33.1008 -85.8342 96° East 391 450 21,000  Level Atlanta Center
09:30AM 33.0900 -85.7150 96° East 373 429 21,000  Level Atlanta Center
09:31AM 33.0811 -85.5983 95° East 356 410 21,000 -360 Level Atlanta Center
09:32AM 33.0697 -85.4864 97° East 345 397 20,300 -960 Descending Atlanta Center
09:33AM 33.0628 -85.3722 94° East 350 403 19,100 -1,260 Descending Atlanta Center
09:34AM 33.0536 -85.2483 95° East 361 415 17,900 -1,500 Descending Atlanta Center
09:35AM 33.0881 -85.1494 67° East 332 382 16,200 -1,800 Descending Atlanta Center
09:36AM 33.1556 -85.0661 46° Northeast 322 371 14,300 -1,260 Descending Atlanta Center
09:37AM 33.2208 -84.9800 48° Northeast 341 392 13,700 -600 Descending Atlanta Center
09:38AM 33.2842 -84.8961 48° Northeast 341 392 13,100 -720 Descending Atlanta Center
09:39AM 33.3494 -84.8122 47° Northeast 341 392 12,300 -600 Descending Atlanta Center
09:40AM 33.4125 -84.7233 50° Northeast 341 392 12,000 -180 Descending Atlanta Center
09:41AM 33.4650 -84.6539 48° Northeast 328 377 12,000  Level Atlanta Center
09:42AM 33.5133 -84.5869 49° Northeast 286 329 12,000 -600 Level Atlanta Center
09:43AM 33.5450 -84.5147 62° Northeast 251 289 10,900 -1,560 Descending Atlanta Center
09:44AM 33.5472 -84.4303 88° East 236 272 8,900 -2,160 Descending Atlanta Center
09:45AM 33.5500 -84.3333 88° East 237 273 6,500 -2,040 Descending Atlanta TRACON
09:46AM 33.5500 -84.2500 90° East 231 266 4,700 -1,320 Descending Atlanta TRACON
09:47AM 33.6000 -84.2333 16° North 185 213 3,900 -840 Descending Atlanta TRACON